sensor_id;sensor_type;location;lat;lon;timestamp;P1;durP1;ratioP1;P2;durP2;ratioP2
15716;SDS011;7960;50.908;4.204;2023-07-13T00:01:27;5.03;;;2.77;;
15716;SDS011;7960;50.908;4.204;2023-07-13T00:03:54;6.60;;;2.93;;
15716;SDS011;7960;50.908;4.204;2023-07-13T00:06:21;6.87;;;2.97;;
15716;SDS011;7960;50.908;4.204;2023-07-13T00:08:48;3.80;;;2.50;;
15716;SDS011;7960;50.908;4.204;2023-07-13T00:11:15;7.80;;;2.43;;
15716;SDS011;7960;50.908;4.204;2023-07-13T00:13:43;5.37;;;2.60;;
15716;SDS011;7960;50.908;4.204;2023-07-13T00:16:11;8.73;;;2.90;;
15716;SDS011;7960;50.908;4.204;2023-07-13T00:18:39;4.97;;;2.23;;
15716;SDS011;7960;50.908;4.204;2023-07-13T00:21:06;6.37;;;2.63;;
15716;SDS011;7960;50.908;4.204;2023-07-13T00:23:33;6.67;;;2.93;;
15716;SDS011;7960;50.908;4.204;2023-07-13T00:26:02;5.63;;;2.60;;
15716;SDS011;7960;50.908;4.204;2023-07-13T00:28:30;6.50;;;2.43;;
15716;SDS011;7960;50.908;4.204;2023-07-13T00:30:59;4.30;;;2.30;;
15716;SDS011;7960;50.908;4.204;2023-07-13T00:33:26;4.83;;;2.27;;
15716;SDS011;7960;50.908;4.204;2023-07-13T00:35:54;5.00;;;2.83;;
15716;SDS011;7960;50.908;4.204;2023-07-13T00:38:21;6.10;;;2.57;;
15716;SDS011;7960;50.908;4.204;2023-07-13T00:40:48;6.80;;;2.90;;
15716;SDS011;7960;50.908;4.204;2023-07-13T00:43:15;6.60;;;3.00;;
15716;SDS011;7960;50.908;4.204;2023-07-13T00:46:10;4.77;;;2.97;;
15716;SDS011;7960;50.908;4.204;2023-07-13T00:48:51;9.40;;;3.30;;
15716;SDS011;7960;50.908;4.204;2023-07-13T00:51:21;6.40;;;2.40;;
15716;SDS011;7960;50.908;4.204;2023-07-13T00:53:53;5.00;;;2.50;;
15716;SDS011;7960;50.908;4.204;2023-07-13T00:56:22;6.20;;;2.50;;
15716;SDS011;7960;50.908;4.204;2023-07-13T00:58:49;5.23;;;2.80;;
15716;SDS011;7960;50.908;4.204;2023-07-13T01:01:18;9.97;;;2.77;;
15716;SDS011;7960;50.908;4.204;2023-07-13T01:03:44;6.07;;;2.47;;
15716;SDS011;7960;50.908;4.204;2023-07-13T01:06:11;7.07;;;2.77;;
15716;SDS011;7960;50.908;4.204;2023-07-13T01:08:39;6.73;;;2.33;;
15716;SDS011;7960;50.908;4.204;2023-07-13T01:11:06;6.80;;;2.80;;
15716;SDS011;7960;50.908;4.204;2023-07-13T01:13:34;5.23;;;3.07;;
15716;SDS011;7960;50.908;4.204;2023-07-13T01:16:02;4.43;;;2.60;;
15716;SDS011;7960;50.908;4.204;2023-07-13T01:18:39;5.50;;;2.77;;
15716;SDS011;7960;50.908;4.204;2023-07-13T01:21:08;8.23;;;3.07;;
15716;SDS011;7960;50.908;4.204;2023-07-13T01:23:34;6.53;;;2.90;;
15716;SDS011;7960;50.908;4.204;2023-07-13T01:26:01;6.27;;;2.63;;
15716;SDS011;7960;50.908;4.204;2023-07-13T01:28:28;6.27;;;3.40;;
15716;SDS011;7960;50.908;4.204;2023-07-13T01:30:56;5.83;;;2.83;;
15716;SDS011;7960;50.908;4.204;2023-07-13T01:33:25;11.10;;;2.70;;
15716;SDS011;7960;50.908;4.204;2023-07-13T01:35:52;8.97;;;2.63;;
15716;SDS011;7960;50.908;4.204;2023-07-13T01:38:21;6.97;;;2.80;;
15716;SDS011;7960;50.908;4.204;2023-07-13T01:40:48;7.43;;;3.10;;
15716;SDS011;7960;50.908;4.204;2023-07-13T01:43:16;8.90;;;2.93;;
15716;SDS011;7960;50.908;4.204;2023-07-13T01:45:43;6.47;;;2.80;;
15716;SDS011;7960;50.908;4.204;2023-07-13T01:48:10;7.90;;;3.23;;
15716;SDS011;7960;50.908;4.204;2023-07-13T01:50:37;8.27;;;2.50;;
15716;SDS011;7960;50.908;4.204;2023-07-13T01:53:04;8.60;;;2.90;;
15716;SDS011;7960;50.908;4.204;2023-07-13T01:55:33;6.83;;;3.13;;
15716;SDS011;7960;50.908;4.204;2023-07-13T01:58:00;5.03;;;2.83;;
15716;SDS011;7960;50.908;4.204;2023-07-13T02:00:27;9.33;;;2.90;;
15716;SDS011;7960;50.908;4.204;2023-07-13T02:02:54;7.50;;;3.00;;
15716;SDS011;7960;50.908;4.204;2023-07-13T02:05:21;7.87;;;3.00;;
15716;SDS011;7960;50.908;4.204;2023-07-13T02:07:48;8.53;;;3.20;;
15716;SDS011;7960;50.908;4.204;2023-07-13T02:10:15;5.43;;;2.63;;
15716;SDS011;7960;50.908;4.204;2023-07-13T02:12:43;7.67;;;3.17;;
15716;SDS011;7960;50.908;4.204;2023-07-13T02:15:10;5.80;;;3.07;;
15716;SDS011;7960;50.908;4.204;2023-07-13T02:17:37;7.97;;;3.10;;
15716;SDS011;7960;50.908;4.204;2023-07-13T02:20:04;9.53;;;3.07;;
15716;SDS011;7960;50.908;4.204;2023-07-13T02:22:33;8.50;;;3.53;;
15716;SDS011;7960;50.908;4.204;2023-07-13T02:25:00;7.10;;;3.17;;
15716;SDS011;7960;50.908;4.204;2023-07-13T02:27:26;8.57;;;3.40;;
15716;SDS011;7960;50.908;4.204;2023-07-13T02:29:55;6.43;;;3.10;;
15716;SDS011;7960;50.908;4.204;2023-07-13T02:32:21;10.13;;;3.43;;
15716;SDS011;7960;50.908;4.204;2023-07-13T02:34:50;6.77;;;3.10;;
15716;SDS011;7960;50.908;4.204;2023-07-13T02:37:17;10.00;;;3.60;;
15716;SDS011;7960;50.908;4.204;2023-07-13T02:39:44;11.93;;;3.17;;
15716;SDS011;7960;50.908;4.204;2023-07-13T02:42:11;7.43;;;3.23;;
15716;SDS011;7960;50.908;4.204;2023-07-13T02:44:37;10.37;;;3.17;;
15716;SDS011;7960;50.908;4.204;2023-07-13T02:47:06;10.33;;;3.63;;
15716;SDS011;7960;50.908;4.204;2023-07-13T02:49:33;7.83;;;2.80;;
15716;SDS011;7960;50.908;4.204;2023-07-13T02:52:00;8.10;;;3.57;;
15716;SDS011;7960;50.908;4.204;2023-07-13T02:54:27;13.07;;;3.70;;
15716;SDS011;7960;50.908;4.204;2023-07-13T02:56:54;5.90;;;3.30;;
15716;SDS011;7960;50.908;4.204;2023-07-13T02:59:21;5.90;;;3.00;;
15716;SDS011;7960;50.908;4.204;2023-07-13T03:01:47;11.63;;;3.30;;
15716;SDS011;7960;50.908;4.204;2023-07-13T03:04:15;10.20;;;3.33;;
15716;SDS011;7960;50.908;4.204;2023-07-13T03:06:44;10.03;;;3.40;;
15716;SDS011;7960;50.908;4.204;2023-07-13T03:09:12;9.43;;;3.10;;
15716;SDS011;7960;50.908;4.204;2023-07-13T03:11:38;6.90;;;3.40;;
15716;SDS011;7960;50.908;4.204;2023-07-13T03:14:05;11.47;;;3.80;;
15716;SDS011;7960;50.908;4.204;2023-07-13T03:16:33;7.33;;;3.30;;
15716;SDS011;7960;50.908;4.204;2023-07-13T03:18:59;11.03;;;3.53;;
15716;SDS011;7960;50.908;4.204;2023-07-13T03:21:28;10.03;;;3.47;;
15716;SDS011;7960;50.908;4.204;2023-07-13T03:23:54;6.63;;;2.93;;
15716;SDS011;7960;50.908;4.204;2023-07-13T03:26:21;9.70;;;4.20;;
15716;SDS011;7960;50.908;4.204;2023-07-13T03:28:48;7.13;;;3.30;;
15716;SDS011;7960;50.908;4.204;2023-07-13T03:31:16;9.33;;;3.87;;
15716;SDS011;7960;50.908;4.204;2023-07-13T03:33:44;11.57;;;4.03;;
15716;SDS011;7960;50.908;4.204;2023-07-13T03:36:13;9.67;;;3.47;;
15716;SDS011;7960;50.908;4.204;2023-07-13T03:38:45;8.57;;;3.90;;
15716;SDS011;7960;50.908;4.204;2023-07-13T03:41:13;10.47;;;4.17;;
15716;SDS011;7960;50.908;4.204;2023-07-13T03:43:40;10.20;;;3.53;;
15716;SDS011;7960;50.908;4.204;2023-07-13T03:46:07;10.23;;;3.60;;
15716;SDS011;7960;50.908;4.204;2023-07-13T03:48:34;8.73;;;3.83;;
15716;SDS011;7960;50.908;4.204;2023-07-13T03:51:01;10.53;;;3.73;;
15716;SDS011;7960;50.908;4.204;2023-07-13T03:53:28;7.07;;;3.53;;
15716;SDS011;7960;50.908;4.204;2023-07-13T03:55:56;10.00;;;3.63;;
15716;SDS011;7960;50.908;4.204;2023-07-13T03:58:24;8.93;;;3.70;;
15716;SDS011;7960;50.908;4.204;2023-07-13T04:00:54;11.70;;;3.80;;
15716;SDS011;7960;50.908;4.204;2023-07-13T04:03:21;8.43;;;3.73;;
15716;SDS011;7960;50.908;4.204;2023-07-13T04:05:48;11.77;;;3.33;;
15716;SDS011;7960;50.908;4.204;2023-07-13T04:08:15;9.07;;;3.37;;
15716;SDS011;7960;50.908;4.204;2023-07-13T04:10:42;8.47;;;3.63;;
15716;SDS011;7960;50.908;4.204;2023-07-13T04:13:10;8.40;;;3.97;;
15716;SDS011;7960;50.908;4.204;2023-07-13T04:15:38;10.07;;;3.60;;
15716;SDS011;7960;50.908;4.204;2023-07-13T04:18:05;9.47;;;3.83;;
15716;SDS011;7960;50.908;4.204;2023-07-13T04:20:32;7.60;;;3.60;;
15716;SDS011;7960;50.908;4.204;2023-07-13T04:22:59;11.57;;;3.90;;
15716;SDS011;7960;50.908;4.204;2023-07-13T04:25:25;10.90;;;4.00;;
15716;SDS011;7960;50.908;4.204;2023-07-13T04:27:53;8.73;;;3.87;;
15716;SDS011;7960;50.908;4.204;2023-07-13T04:30:23;8.90;;;3.63;;
15716;SDS011;7960;50.908;4.204;2023-07-13T04:32:51;10.73;;;3.73;;
15716;SDS011;7960;50.908;4.204;2023-07-13T04:35:18;6.87;;;3.53;;
15716;SDS011;7960;50.908;4.204;2023-07-13T04:37:46;9.23;;;3.80;;
15716;SDS011;7960;50.908;4.204;2023-07-13T04:40:15;6.13;;;3.37;;
15716;SDS011;7960;50.908;4.204;2023-07-13T04:42:42;13.37;;;4.07;;
15716;SDS011;7960;50.908;4.204;2023-07-13T04:45:09;12.97;;;4.00;;
15716;SDS011;7960;50.908;4.204;2023-07-13T04:47:38;11.27;;;4.03;;
15716;SDS011;7960;50.908;4.204;2023-07-13T04:50:05;9.53;;;3.93;;
15716;SDS011;7960;50.908;4.204;2023-07-13T04:52:32;11.53;;;3.90;;
15716;SDS011;7960;50.908;4.204;2023-07-13T04:54:59;14.47;;;3.50;;
15716;SDS011;7960;50.908;4.204;2023-07-13T04:57:27;12.43;;;4.47;;
15716;SDS011;7960;50.908;4.204;2023-07-13T04:59:54;12.23;;;4.53;;
15716;SDS011;7960;50.908;4.204;2023-07-13T05:02:21;12.07;;;4.20;;
15716;SDS011;7960;50.908;4.204;2023-07-13T05:04:49;7.80;;;3.87;;
15716;SDS011;7960;50.908;4.204;2023-07-13T05:07:16;11.10;;;3.93;;
15716;SDS011;7960;50.908;4.204;2023-07-13T05:09:42;12.23;;;3.80;;
15716;SDS011;7960;50.908;4.204;2023-07-13T05:12:09;11.13;;;3.60;;
15716;SDS011;7960;50.908;4.204;2023-07-13T05:14:36;13.37;;;4.27;;
15716;SDS011;7960;50.908;4.204;2023-07-13T05:17:03;11.57;;;4.00;;
15716;SDS011;7960;50.908;4.204;2023-07-13T05:19:30;13.27;;;3.83;;
15716;SDS011;7960;50.908;4.204;2023-07-13T05:21:59;12.13;;;4.17;;
15716;SDS011;7960;50.908;4.204;2023-07-13T05:24:26;17.10;;;4.60;;
15716;SDS011;7960;50.908;4.204;2023-07-13T05:26:53;17.83;;;4.33;;
15716;SDS011;7960;50.908;4.204;2023-07-13T05:29:20;14.20;;;4.07;;
15716;SDS011;7960;50.908;4.204;2023-07-13T05:31:47;10.77;;;4.20;;
15716;SDS011;7960;50.908;4.204;2023-07-13T05:34:14;11.70;;;4.07;;
15716;SDS011;7960;50.908;4.204;2023-07-13T05:36:41;10.57;;;4.33;;
15716;SDS011;7960;50.908;4.204;2023-07-13T05:39:09;12.17;;;4.40;;
15716;SDS011;7960;50.908;4.204;2023-07-13T05:41:36;10.33;;;3.93;;
15716;SDS011;7960;50.908;4.204;2023-07-13T05:44:03;11.87;;;3.60;;
15716;SDS011;7960;50.908;4.204;2023-07-13T05:46:30;11.83;;;4.20;;
15716;SDS011;7960;50.908;4.204;2023-07-13T05:48:57;12.93;;;3.60;;
15716;SDS011;7960;50.908;4.204;2023-07-13T05:51:24;10.37;;;4.00;;
15716;SDS011;7960;50.908;4.204;2023-07-13T05:53:51;10.50;;;4.83;;
15716;SDS011;7960;50.908;4.204;2023-07-13T05:56:19;10.97;;;4.00;;
15716;SDS011;7960;50.908;4.204;2023-07-13T05:58:47;9.47;;;3.73;;
15716;SDS011;7960;50.908;4.204;2023-07-13T06:01:14;10.37;;;3.80;;
15716;SDS011;7960;50.908;4.204;2023-07-13T06:03:42;11.83;;;3.93;;
15716;SDS011;7960;50.908;4.204;2023-07-13T06:06:09;12.60;;;4.43;;
15716;SDS011;7960;50.908;4.204;2023-07-13T06:08:36;13.63;;;4.53;;
15716;SDS011;7960;50.908;4.204;2023-07-13T06:11:04;11.60;;;3.77;;
15716;SDS011;7960;50.908;4.204;2023-07-13T06:13:33;13.90;;;4.07;;
15716;SDS011;7960;50.908;4.204;2023-07-13T06:16:00;10.03;;;3.87;;
15716;SDS011;7960;50.908;4.204;2023-07-13T06:18:29;12.67;;;4.53;;
15716;SDS011;7960;50.908;4.204;2023-07-13T06:20:56;10.33;;;4.37;;
15716;SDS011;7960;50.908;4.204;2023-07-13T06:23:23;12.23;;;4.13;;
15716;SDS011;7960;50.908;4.204;2023-07-13T06:25:51;12.57;;;4.47;;
15716;SDS011;7960;50.908;4.204;2023-07-13T06:28:18;10.37;;;3.83;;
15716;SDS011;7960;50.908;4.204;2023-07-13T06:30:46;11.93;;;4.63;;
15716;SDS011;7960;50.908;4.204;2023-07-13T06:33:13;10.40;;;4.13;;
15716;SDS011;7960;50.908;4.204;2023-07-13T06:35:40;9.43;;;3.73;;
15716;SDS011;7960;50.908;4.204;2023-07-13T06:38:07;9.20;;;4.37;;
15716;SDS011;7960;50.908;4.204;2023-07-13T06:40:34;11.10;;;4.23;;
15716;SDS011;7960;50.908;4.204;2023-07-13T06:43:01;13.10;;;4.87;;
15716;SDS011;7960;50.908;4.204;2023-07-13T06:45:27;8.47;;;4.30;;
15716;SDS011;7960;50.908;4.204;2023-07-13T06:47:56;12.67;;;4.63;;
15716;SDS011;7960;50.908;4.204;2023-07-13T06:50:22;13.27;;;4.73;;
15716;SDS011;7960;50.908;4.204;2023-07-13T06:52:49;9.83;;;4.33;;
15716;SDS011;7960;50.908;4.204;2023-07-13T06:55:17;13.63;;;4.83;;
15716;SDS011;7960;50.908;4.204;2023-07-13T06:57:44;13.23;;;5.20;;
15716;SDS011;7960;50.908;4.204;2023-07-13T07:00:12;9.07;;;4.83;;
15716;SDS011;7960;50.908;4.204;2023-07-13T07:02:39;12.53;;;4.43;;
15716;SDS011;7960;50.908;4.204;2023-07-13T07:05:08;12.53;;;4.90;;
15716;SDS011;7960;50.908;4.204;2023-07-13T07:07:35;14.07;;;5.27;;
15716;SDS011;7960;50.908;4.204;2023-07-13T07:10:01;12.70;;;4.63;;
15716;SDS011;7960;50.908;4.204;2023-07-13T07:12:29;9.87;;;4.70;;
15716;SDS011;7960;50.908;4.204;2023-07-13T07:14:56;14.57;;;5.67;;
15716;SDS011;7960;50.908;4.204;2023-07-13T07:17:22;13.73;;;4.93;;
15716;SDS011;7960;50.908;4.204;2023-07-13T07:19:50;11.87;;;4.60;;
15716;SDS011;7960;50.908;4.204;2023-07-13T07:22:20;11.17;;;4.87;;
15716;SDS011;7960;50.908;4.204;2023-07-13T07:24:47;10.37;;;4.60;;
15716;SDS011;7960;50.908;4.204;2023-07-13T07:27:14;9.53;;;4.40;;
15716;SDS011;7960;50.908;4.204;2023-07-13T07:29:41;10.57;;;5.07;;
15716;SDS011;7960;50.908;4.204;2023-07-13T07:32:07;11.17;;;5.23;;
15716;SDS011;7960;50.908;4.204;2023-07-13T07:34:34;11.80;;;5.13;;
15716;SDS011;7960;50.908;4.204;2023-07-13T07:37:02;10.47;;;4.97;;
15716;SDS011;7960;50.908;4.204;2023-07-13T07:39:30;12.27;;;5.10;;
15716;SDS011;7960;50.908;4.204;2023-07-13T07:41:58;10.73;;;4.57;;
15716;SDS011;7960;50.908;4.204;2023-07-13T07:44:25;14.13;;;4.47;;
15716;SDS011;7960;50.908;4.204;2023-07-13T07:46:53;9.47;;;4.43;;
15716;SDS011;7960;50.908;4.204;2023-07-13T07:49:20;9.60;;;4.30;;
15716;SDS011;7960;50.908;4.204;2023-07-13T07:51:47;9.50;;;4.30;;
15716;SDS011;7960;50.908;4.204;2023-07-13T07:54:14;12.80;;;4.50;;
15716;SDS011;7960;50.908;4.204;2023-07-13T07:56:43;11.80;;;4.60;;
15716;SDS011;7960;50.908;4.204;2023-07-13T07:59:10;9.20;;;4.03;;
15716;SDS011;7960;50.908;4.204;2023-07-13T08:01:37;9.67;;;4.40;;
15716;SDS011;7960;50.908;4.204;2023-07-13T08:04:04;11.47;;;4.63;;
15716;SDS011;7960;50.908;4.204;2023-07-13T08:06:31;10.93;;;4.50;;
15716;SDS011;7960;50.908;4.204;2023-07-13T08:08:58;8.73;;;4.13;;
15716;SDS011;7960;50.908;4.204;2023-07-13T08:11:26;11.73;;;4.60;;
15716;SDS011;7960;50.908;4.204;2023-07-13T08:13:54;10.33;;;4.37;;
15716;SDS011;7960;50.908;4.204;2023-07-13T08:16:21;8.63;;;4.27;;
15716;SDS011;7960;50.908;4.204;2023-07-13T08:18:48;8.40;;;4.20;;
15716;SDS011;7960;50.908;4.204;2023-07-13T08:21:15;9.17;;;4.47;;
15716;SDS011;7960;50.908;4.204;2023-07-13T08:23:45;7.77;;;4.77;;
15716;SDS011;7960;50.908;4.204;2023-07-13T08:26:12;10.83;;;4.40;;
15716;SDS011;7960;50.908;4.204;2023-07-13T08:28:39;8.27;;;5.03;;
15716;SDS011;7960;50.908;4.204;2023-07-13T08:31:08;7.30;;;4.47;;
15716;SDS011;7960;50.908;4.204;2023-07-13T08:33:36;6.93;;;4.50;;
15716;SDS011;7960;50.908;4.204;2023-07-13T08:36:05;10.67;;;5.23;;
15716;SDS011;7960;50.908;4.204;2023-07-13T08:38:32;9.93;;;4.57;;
15716;SDS011;7960;50.908;4.204;2023-07-13T08:41:00;13.33;;;5.17;;
15716;SDS011;7960;50.908;4.204;2023-07-13T08:43:36;8.80;;;4.60;;
15716;SDS011;7960;50.908;4.204;2023-07-13T08:46:05;10.37;;;4.50;;
15716;SDS011;7960;50.908;4.204;2023-07-13T08:48:39;8.00;;;4.27;;
15716;SDS011;7960;50.908;4.204;2023-07-13T08:51:12;10.07;;;4.40;;
15716;SDS011;7960;50.908;4.204;2023-07-13T08:54:03;10.83;;;4.73;;
15716;SDS011;7960;50.908;4.204;2023-07-13T08:56:36;11.07;;;4.23;;
15716;SDS011;7960;50.908;4.204;2023-07-13T08:59:04;7.90;;;4.63;;
15716;SDS011;7960;50.908;4.204;2023-07-13T09:01:45;12.00;;;4.43;;
15716;SDS011;7960;50.908;4.204;2023-07-13T09:04:22;9.13;;;4.40;;
15716;SDS011;7960;50.908;4.204;2023-07-13T09:06:55;10.03;;;4.30;;
15716;SDS011;7960;50.908;4.204;2023-07-13T09:09:31;8.60;;;3.77;;
15716;SDS011;7960;50.908;4.204;2023-07-13T09:12:09;6.77;;;4.10;;
15716;SDS011;7960;50.908;4.204;2023-07-13T09:14:44;10.57;;;5.20;;
15716;SDS011;7960;50.908;4.204;2023-07-13T09:17:18;8.13;;;3.90;;
15716;SDS011;7960;50.908;4.204;2023-07-13T09:19:48;7.83;;;3.87;;
15716;SDS011;7960;50.908;4.204;2023-07-13T09:22:20;7.07;;;3.80;;
15716;SDS011;7960;50.908;4.204;2023-07-13T09:24:52;8.43;;;3.57;;
15716;SDS011;7960;50.908;4.204;2023-07-13T09:27:26;8.13;;;4.33;;
15716;SDS011;7960;50.908;4.204;2023-07-13T09:29:57;7.50;;;3.80;;
15716;SDS011;7960;50.908;4.204;2023-07-13T09:32:31;13.53;;;3.83;;
15716;SDS011;7960;50.908;4.204;2023-07-13T09:34:59;7.47;;;3.70;;
15716;SDS011;7960;50.908;4.204;2023-07-13T09:37:29;8.13;;;4.03;;
15716;SDS011;7960;50.908;4.204;2023-07-13T09:39:59;7.57;;;3.80;;
15716;SDS011;7960;50.908;4.204;2023-07-13T09:42:30;7.53;;;3.60;;
15716;SDS011;7960;50.908;4.204;2023-07-13T09:45:00;8.47;;;3.60;;
15716;SDS011;7960;50.908;4.204;2023-07-13T09:47:29;6.23;;;3.63;;
15716;SDS011;7960;50.908;4.204;2023-07-13T09:49:59;6.83;;;4.13;;
15716;SDS011;7960;50.908;4.204;2023-07-13T09:52:28;7.33;;;3.67;;
15716;SDS011;7960;50.908;4.204;2023-07-13T09:55:15;7.97;;;4.03;;
15716;SDS011;7960;50.908;4.204;2023-07-13T09:57:50;7.37;;;3.30;;
15716;SDS011;7960;50.908;4.204;2023-07-13T10:00:20;5.23;;;3.43;;
15716;SDS011;7960;50.908;4.204;2023-07-13T10:02:57;9.90;;;4.20;;
15716;SDS011;7960;50.908;4.204;2023-07-13T10:05:27;7.03;;;3.60;;
15716;SDS011;7960;50.908;4.204;2023-07-13T10:07:53;6.13;;;3.27;;
15716;SDS011;7960;50.908;4.204;2023-07-13T10:10:22;7.97;;;3.87;;
15716;SDS011;7960;50.908;4.204;2023-07-13T10:12:49;6.10;;;3.30;;
15716;SDS011;7960;50.908;4.204;2023-07-13T10:15:20;8.03;;;3.30;;
15716;SDS011;7960;50.908;4.204;2023-07-13T10:17:50;6.53;;;2.70;;
15716;SDS011;7960;50.908;4.204;2023-07-13T10:20:20;7.37;;;2.83;;
15716;SDS011;7960;50.908;4.204;2023-07-13T10:22:49;6.67;;;3.17;;
15716;SDS011;7960;50.908;4.204;2023-07-13T10:25:20;6.07;;;3.07;;
15716;SDS011;7960;50.908;4.204;2023-07-13T10:27:50;6.57;;;3.20;;
15716;SDS011;7960;50.908;4.204;2023-07-13T10:30:21;7.03;;;3.33;;
15716;SDS011;7960;50.908;4.204;2023-07-13T10:32:53;7.97;;;3.57;;
15716;SDS011;7960;50.908;4.204;2023-07-13T10:35:21;8.27;;;3.90;;
15716;SDS011;7960;50.908;4.204;2023-07-13T10:37:51;10.53;;;4.20;;
15716;SDS011;7960;50.908;4.204;2023-07-13T10:40:25;7.50;;;3.90;;
15716;SDS011;7960;50.908;4.204;2023-07-13T10:42:56;10.27;;;4.57;;
15716;SDS011;7960;50.908;4.204;2023-07-13T10:45:25;10.30;;;4.13;;
15716;SDS011;7960;50.908;4.204;2023-07-13T10:47:54;9.37;;;4.70;;
15716;SDS011;7960;50.908;4.204;2023-07-13T10:50:23;9.10;;;4.83;;
15716;SDS011;7960;50.908;4.204;2023-07-13T10:52:53;7.57;;;4.47;;
15716;SDS011;7960;50.908;4.204;2023-07-13T10:55:36;7.70;;;4.47;;
15716;SDS011;7960;50.908;4.204;2023-07-13T10:58:14;8.00;;;4.47;;
15716;SDS011;7960;50.908;4.204;2023-07-13T11:00:49;7.87;;;3.73;;
15716;SDS011;7960;50.908;4.204;2023-07-13T11:03:28;5.97;;;3.70;;
15716;SDS011;7960;50.908;4.204;2023-07-13T11:06:05;6.53;;;3.40;;
15716;SDS011;7960;50.908;4.204;2023-07-13T11:08:37;6.40;;;3.57;;
15716;SDS011;7960;50.908;4.204;2023-07-13T11:11:33;7.87;;;3.83;;
15716;SDS011;7960;50.908;4.204;2023-07-13T11:14:03;11.13;;;4.03;;
15716;SDS011;7960;50.908;4.204;2023-07-13T11:16:37;6.63;;;3.50;;
15716;SDS011;7960;50.908;4.204;2023-07-13T11:19:24;5.57;;;3.40;;
15716;SDS011;7960;50.908;4.204;2023-07-13T11:28:22;9.07;;;3.83;;
15716;SDS011;7960;50.908;4.204;2023-07-13T11:30:59;5.57;;;3.50;;
15716;SDS011;7960;50.908;4.204;2023-07-13T11:33:50;5.43;;;3.70;;
15716;SDS011;7960;50.908;4.204;2023-07-13T11:36:20;7.53;;;3.50;;
15716;SDS011;7960;50.908;4.204;2023-07-13T11:38:54;6.90;;;3.70;;
15716;SDS011;7960;50.908;4.204;2023-07-13T11:41:27;10.63;;;3.83;;
15716;SDS011;7960;50.908;4.204;2023-07-13T11:44:02;7.73;;;3.83;;
15716;SDS011;7960;50.908;4.204;2023-07-13T11:46:34;5.70;;;3.70;;
15716;SDS011;7960;50.908;4.204;2023-07-13T11:49:00;6.53;;;3.30;;
15716;SDS011;7960;50.908;4.204;2023-07-13T11:51:30;6.70;;;3.33;;
15716;SDS011;7960;50.908;4.204;2023-07-13T11:54:01;8.50;;;3.50;;
15716;SDS011;7960;50.908;4.204;2023-07-13T11:56:33;4.13;;;3.33;;
15716;SDS011;7960;50.908;4.204;2023-07-13T11:59:04;7.13;;;3.30;;
15716;SDS011;7960;50.908;4.204;2023-07-13T12:01:33;3.87;;;2.90;;
15716;SDS011;7960;50.908;4.204;2023-07-13T12:04:03;5.77;;;2.90;;
15716;SDS011;7960;50.908;4.204;2023-07-13T12:06:32;5.23;;;2.67;;
15716;SDS011;7960;50.908;4.204;2023-07-13T12:09:03;2.87;;;2.50;;
15716;SDS011;7960;50.908;4.204;2023-07-13T12:11:39;3.40;;;2.20;;
15716;SDS011;7960;50.908;4.204;2023-07-13T12:14:12;4.17;;;2.60;;
15716;SDS011;7960;50.908;4.204;2023-07-13T12:16:40;4.47;;;2.57;;
15716;SDS011;7960;50.908;4.204;2023-07-13T12:19:09;2.40;;;2.20;;
15716;SDS011;7960;50.908;4.204;2023-07-13T12:21:43;3.53;;;2.33;;
15716;SDS011;7960;50.908;4.204;2023-07-13T12:24:13;4.73;;;2.27;;
15716;SDS011;7960;50.908;4.204;2023-07-13T12:26:42;2.97;;;2.47;;
15716;SDS011;7960;50.908;4.204;2023-07-13T12:29:11;3.43;;;2.90;;
15716;SDS011;7960;50.908;4.204;2023-07-13T12:31:42;2.33;;;2.13;;
15716;SDS011;7960;50.908;4.204;2023-07-13T12:34:11;3.83;;;2.27;;
15716;SDS011;7960;50.908;4.204;2023-07-13T12:36:40;5.27;;;2.27;;
15716;SDS011;7960;50.908;4.204;2023-07-13T12:39:15;4.37;;;2.73;;
15716;SDS011;7960;50.908;4.204;2023-07-13T12:44:16;4.57;;;2.70;;
15716;SDS011;7960;50.908;4.204;2023-07-13T12:46:52;3.40;;;2.60;;
15716;SDS011;7960;50.908;4.204;2023-07-13T12:49:22;5.93;;;2.97;;
15716;SDS011;7960;50.908;4.204;2023-07-13T12:51:50;7.57;;;3.10;;
15716;SDS011;7960;50.908;4.204;2023-07-13T12:54:24;3.20;;;2.73;;
15716;SDS011;7960;50.908;4.204;2023-07-13T12:56:53;5.60;;;2.83;;
15716;SDS011;7960;50.908;4.204;2023-07-13T12:59:25;7.03;;;2.80;;
15716;SDS011;7960;50.908;4.204;2023-07-13T13:01:58;4.17;;;2.53;;
15716;SDS011;7960;50.908;4.204;2023-07-13T13:04:25;8.67;;;6.60;;
15716;SDS011;7960;50.908;4.204;2023-07-13T13:07:00;5.07;;;3.60;;
15716;SDS011;7960;50.908;4.204;2023-07-13T13:09:28;4.23;;;2.80;;
15716;SDS011;7960;50.908;4.204;2023-07-13T13:11:56;3.93;;;2.30;;
15716;SDS011;7960;50.908;4.204;2023-07-13T13:14:23;7.90;;;4.57;;
15716;SDS011;7960;50.908;4.204;2023-07-13T13:16:50;4.60;;;2.73;;
15716;SDS011;7960;50.908;4.204;2023-07-13T13:19:20;3.50;;;2.80;;
15716;SDS011;7960;50.908;4.204;2023-07-13T13:21:49;4.13;;;2.60;;
15716;SDS011;7960;50.908;4.204;2023-07-13T13:24:18;3.00;;;2.40;;
15716;SDS011;7960;50.908;4.204;2023-07-13T13:26:46;4.37;;;2.93;;
15716;SDS011;7960;50.908;4.204;2023-07-13T13:29:16;3.47;;;2.70;;
15716;SDS011;7960;50.908;4.204;2023-07-13T13:31:45;3.13;;;2.40;;
15716;SDS011;7960;50.908;4.204;2023-07-13T13:34:13;4.53;;;2.80;;
15716;SDS011;7960;50.908;4.204;2023-07-13T13:36:42;6.20;;;3.13;;
15716;SDS011;7960;50.908;4.204;2023-07-13T13:39:15;5.67;;;3.03;;
15716;SDS011;7960;50.908;4.204;2023-07-13T13:41:46;5.67;;;2.70;;
15716;SDS011;7960;50.908;4.204;2023-07-13T13:44:14;14.53;;;3.00;;
15716;SDS011;7960;50.908;4.204;2023-07-13T13:46:43;5.17;;;2.63;;
15716;SDS011;7960;50.908;4.204;2023-07-13T13:49:13;6.30;;;2.63;;
15716;SDS011;7960;50.908;4.204;2023-07-13T13:51:42;5.83;;;2.80;;
15716;SDS011;7960;50.908;4.204;2023-07-13T13:54:10;4.27;;;2.50;;
15716;SDS011;7960;50.908;4.204;2023-07-13T13:56:39;2.67;;;2.20;;
15716;SDS011;7960;50.908;4.204;2023-07-13T13:59:07;3.53;;;2.37;;
15716;SDS011;7960;50.908;4.204;2023-07-13T14:01:36;6.10;;;2.53;;
15716;SDS011;7960;50.908;4.204;2023-07-13T14:04:03;3.60;;;2.23;;
15716;SDS011;7960;50.908;4.204;2023-07-13T14:06:32;4.27;;;2.67;;
15716;SDS011;7960;50.908;4.204;2023-07-13T14:08:59;3.57;;;2.30;;
15716;SDS011;7960;50.908;4.204;2023-07-13T14:11:27;4.90;;;2.80;;
15716;SDS011;7960;50.908;4.204;2023-07-13T14:13:56;4.63;;;2.60;;
15716;SDS011;7960;50.908;4.204;2023-07-13T14:16:25;5.07;;;2.50;;
15716;SDS011;7960;50.908;4.204;2023-07-13T14:18:58;6.03;;;2.53;;
15716;SDS011;7960;50.908;4.204;2023-07-13T14:21:26;4.67;;;2.47;;
15716;SDS011;7960;50.908;4.204;2023-07-13T14:23:54;4.00;;;3.07;;
15716;SDS011;7960;50.908;4.204;2023-07-13T14:26:21;3.73;;;2.60;;
15716;SDS011;7960;50.908;4.204;2023-07-13T14:28:50;6.47;;;2.97;;
15716;SDS011;7960;50.908;4.204;2023-07-13T14:31:18;3.23;;;2.10;;
15716;SDS011;7960;50.908;4.204;2023-07-13T14:33:47;5.50;;;2.73;;
15716;SDS011;7960;50.908;4.204;2023-07-13T14:36:20;3.73;;;2.63;;
15716;SDS011;7960;50.908;4.204;2023-07-13T14:38:52;6.20;;;2.63;;
15716;SDS011;7960;50.908;4.204;2023-07-13T14:41:20;4.53;;;2.60;;
15716;SDS011;7960;50.908;4.204;2023-07-13T14:43:47;6.73;;;2.30;;
15716;SDS011;7960;50.908;4.204;2023-07-13T14:46:18;4.77;;;2.53;;
15716;SDS011;7960;50.908;4.204;2023-07-13T14:48:54;8.93;;;3.00;;
15716;SDS011;7960;50.908;4.204;2023-07-13T14:51:28;4.87;;;2.43;;
15716;SDS011;7960;50.908;4.204;2023-07-13T14:53:55;3.37;;;2.50;;
15716;SDS011;7960;50.908;4.204;2023-07-13T14:56:22;3.25;;;2.10;;
15716;SDS011;7960;50.908;4.204;2023-07-13T14:58:49;5.37;;;2.60;;
15716;SDS011;7960;50.908;4.204;2023-07-13T15:01:18;2.47;;;2.20;;
15716;SDS011;7960;50.908;4.204;2023-07-13T15:03:47;3.73;;;2.57;;
15716;SDS011;7960;50.908;4.204;2023-07-13T15:06:16;2.50;;;2.10;;
15716;SDS011;7960;50.908;4.204;2023-07-13T15:08:46;3.17;;;2.28;;
15716;SDS011;7960;50.908;4.204;2023-07-13T15:11:13;3.07;;;2.40;;
15716;SDS011;7960;50.908;4.204;2023-07-13T15:13:40;3.38;;;2.35;;
15716;SDS011;7960;50.908;4.204;2023-07-13T15:16:11;2.28;;;1.90;;
15716;SDS011;7960;50.908;4.204;2023-07-13T15:18:42;3.60;;;2.28;;